createdAt,value
2022-12-26T00:01:12.755Z,96.19
2022-12-26T00:03:40.204Z,95.88
2022-12-26T00:06:16.291Z,95.95
2022-12-26T00:08:44.535Z,96.12
2022-12-26T00:11:12.270Z,96.31
2022-12-26T00:13:42.807Z,96.17
2022-12-26T00:16:12.372Z,96.17
2022-12-26T00:18:39.950Z,95.64
2022-12-26T00:21:08.690Z,95.61
2022-12-26T00:23:36.535Z,95.75
2022-12-26T00:26:05.648Z,96.14
2022-12-26T00:28:32.588Z,96.08
2022-12-26T00:31:03.052Z,95.90
2022-12-26T00:33:30.143Z,96.00
2022-12-26T00:36:05.311Z,96.15
2022-12-26T00:38:32.304Z,96.49
2022-12-26T00:40:59.311Z,97.06
2022-12-26T00:43:26.500Z,96.74
2022-12-26T00:45:53.451Z,96.78
2022-12-26T00:48:20.532Z,96.96
2022-12-26T00:50:47.534Z,98.02
2022-12-26T00:53:14.515Z,97.94
2022-12-26T00:55:41.390Z,98.47
2022-12-26T00:58:08.495Z,99.22
2022-12-26T01:00:35.817Z,99.74
2022-12-26T01:03:03.290Z,100.00
2022-12-26T01:05:30.439Z,100.00
2022-12-26T01:08:21.184Z,100.00
2022-12-26T01:10:46.772Z,100.00
2022-12-26T01:13:14.621Z,100.00
2022-12-26T01:15:48.234Z,100.00
2022-12-26T01:18:15.340Z,100.00
2022-12-26T01:20:42.453Z,100.00
2022-12-26T01:23:09.478Z,100.00
2022-12-26T01:25:36.423Z,100.00
2022-12-26T01:28:23.503Z,100.00
2022-12-26T01:30:50.739Z,100.00
2022-12-26T01:33:17.686Z,100.00
2022-12-26T01:35:52.055Z,100.00
2022-12-26T01:38:19.309Z,100.00
2022-12-26T01:40:47.086Z,100.00
2022-12-26T01:43:15.856Z,100.00
2022-12-26T01:45:49.861Z,100.00
2022-12-26T01:48:33.537Z,100.00
2022-12-26T01:51:06.213Z,100.00
2022-12-26T01:53:48.231Z,100.00
2022-12-26T01:56:23.887Z,100.00
2022-12-26T01:58:56.577Z,100.00
2022-12-26T02:01:29.107Z,100.00
2022-12-26T02:04:15.217Z,100.00
2022-12-26T02:06:42.939Z,100.00
2022-12-26T02:09:10.407Z,99.47
2022-12-26T02:11:45.397Z,99.27
2022-12-26T02:14:12.305Z,98.29
2022-12-26T02:16:41.135Z,98.41
2022-12-26T02:19:25.041Z,98.04
2022-12-26T02:22:53.624Z,97.32
2022-12-26T02:25:35.232Z,97.10
2022-12-26T02:28:23.752Z,96.92
2022-12-26T02:30:59.700Z,96.44
2022-12-26T02:33:41.864Z,95.98
2022-12-26T02:36:27.408Z,96.37
2022-12-26T02:39:45.664Z,96.18
2022-12-26T02:42:17.080Z,96.60
2022-12-26T02:45:13.475Z,96.39
2022-12-26T02:47:52.346Z,96.44
2022-12-26T02:50:40.837Z,96.43
2022-12-26T02:53:39.090Z,97.10
2022-12-26T02:56:53.532Z,97.39
2022-12-26T02:59:53.772Z,96.94
2022-12-26T03:02:55.101Z,97.40
2022-12-26T03:05:54.848Z,97.84
2022-12-26T03:08:49.545Z,98.20
2022-12-26T03:26:40.665Z,100.00
2022-12-26T03:29:34.492Z,100.00
2022-12-26T03:32:03.422Z,100.00
2022-12-26T03:34:30.451Z,100.00
2022-12-26T03:37:15.521Z,100.00
2022-12-26T03:40:32.913Z,100.00
2022-12-26T03:43:31.238Z,100.00
2022-12-26T03:46:41.928Z,100.00
2022-12-26T03:49:48.100Z,100.00
2022-12-26T03:52:42.453Z,99.50
2022-12-26T03:56:00.915Z,99.83
2022-12-26T03:58:55.167Z,100.00
2022-12-26T04:01:45.780Z,99.59
2022-12-26T04:04:34.308Z,99.81
2022-12-26T04:07:56.524Z,100.00
2022-12-26T04:10:57.365Z,100.00
2022-12-26T04:13:54.795Z,100.00
2022-12-26T04:17:03.430Z,100.00
2022-12-26T04:20:04.298Z,100.00
2022-12-26T04:22:59.995Z,100.00
2022-12-26T04:25:54.255Z,100.00
2022-12-26T04:28:41.705Z,100.00
2022-12-26T04:31:36.009Z,100.00
2022-12-26T04:34:28.311Z,100.00
2022-12-26T04:37:19.984Z,100.00
2022-12-26T04:40:10.668Z,100.00
2022-12-26T04:42:57.250Z,100.00
2022-12-26T04:45:24.402Z,100.00
2022-12-26T04:48:09.816Z,100.00
2022-12-26T04:50:37.100Z,100.00
2022-12-26T04:53:04.019Z,100.00
2022-12-26T04:55:33.377Z,100.00
2022-12-26T04:58:00.726Z,100.00
2022-12-26T05:00:28.925Z,100.00
2022-12-26T05:03:18.988Z,100.00
2022-12-26T05:06:07.377Z,100.00
2022-12-26T05:09:02.243Z,100.00
2022-12-26T05:11:30.946Z,100.00
2022-12-26T05:13:59.197Z,100.00
2022-12-26T05:16:46.351Z,100.00
2022-12-26T05:19:33.398Z,100.00
2022-12-26T05:22:20.967Z,100.00
2022-12-26T05:25:06.587Z,100.00
2022-12-26T05:27:58.812Z,100.00
2022-12-26T05:30:26.398Z,100.00
2022-12-26T05:33:11.732Z,100.00
2022-12-26T05:35:39.941Z,100.00
2022-12-26T05:38:09.720Z,100.00
2022-12-26T05:40:36.869Z,100.00
2022-12-26T05:43:03.823Z,100.00
2022-12-26T05:45:32.099Z,100.00
2022-12-26T05:48:03.329Z,100.00
2022-12-26T05:50:30.488Z,100.00
2022-12-26T05:52:59.552Z,100.00
2022-12-26T05:55:26.850Z,100.00
2022-12-26T05:57:53.953Z,100.00
2022-12-26T06:00:23.609Z,96.02
2022-12-26T06:02:50.751Z,97.58
2022-12-26T06:05:20.720Z,95.81
2022-12-26T06:07:50.673Z,92.23
2022-12-26T06:10:19.803Z,89.56
2022-12-26T06:12:46.816Z,85.32
2022-12-26T06:15:13.620Z,82.01
2022-12-26T06:17:40.596Z,80.03
2022-12-26T06:20:11.209Z,78.47
2022-12-26T06:22:38.369Z,74.65
2022-12-26T06:25:05.844Z,71.61
2022-12-26T06:27:33.247Z,69.30
2022-12-26T06:30:00.258Z,68.38
2022-12-26T06:32:27.191Z,64.26
2022-12-26T06:34:54.034Z,63.85
2022-12-26T06:37:20.984Z,62.21
2022-12-26T06:39:48.015Z,59.90
2022-12-26T06:42:14.946Z,58.25
2022-12-26T06:44:41.909Z,57.03
2022-12-26T06:47:09.164Z,57.09
2022-12-26T06:49:36.193Z,54.54
2022-12-26T06:52:03.158Z,55.14
2022-12-26T06:54:37.265Z,54.62
2022-12-26T06:57:04.169Z,53.97
2022-12-26T06:59:31.237Z,54.02
2022-12-26T07:01:58.551Z,53.09
2022-12-26T07:04:26.199Z,52.92
2022-12-26T07:06:53.194Z,51.74
2022-12-26T07:09:20.353Z,52.59
2022-12-26T07:11:49.603Z,51.48
2022-12-26T07:14:17.416Z,49.63
2022-12-26T07:16:45.365Z,45.49
2022-12-26T07:19:13.890Z,45.79
2022-12-26T07:21:41.628Z,45.23
2022-12-26T07:24:15.151Z,43.93
2022-12-26T07:26:42.301Z,42.56
2022-12-26T07:29:12.097Z,44.03
2022-12-26T07:31:39.663Z,41.89
2022-12-26T07:34:07.115Z,40.13
2022-12-26T07:36:34.080Z,38.36
2022-12-26T07:39:00.918Z,36.42
2022-12-26T07:41:47.848Z,34.66
2022-12-26T07:44:14.855Z,34.62
2022-12-26T07:46:41.810Z,33.48
2022-12-26T07:49:09.195Z,33.13
2022-12-26T07:51:36.098Z,33.59
2022-12-26T07:54:08.874Z,33.80
2022-12-26T07:56:37.923Z,33.75
2022-12-26T07:59:04.937Z,38.28
2022-12-26T08:01:31.942Z,37.45
2022-12-26T08:03:59.111Z,41.01
2022-12-26T08:06:26.034Z,39.62
2022-12-26T08:08:52.924Z,41.85
2022-12-26T08:11:22.999Z,43.86
2022-12-26T08:13:50.785Z,43.94
2022-12-26T08:16:18.310Z,44.41
2022-12-26T08:18:45.243Z,44.79
2022-12-26T08:21:14.170Z,44.95
2022-12-26T08:23:41.433Z,45.98
2022-12-26T08:26:12.138Z,46.16
2022-12-26T08:28:42.044Z,47.90
2022-12-26T08:31:10.476Z,47.42
2022-12-26T08:33:37.515Z,45.25
2022-12-26T08:36:06.131Z,41.13
2022-12-26T08:38:34.003Z,41.62
2022-12-26T08:41:01.430Z,40.18
2022-12-26T08:43:53.222Z,41.42
2022-12-26T08:46:16.686Z,39.74
2022-12-26T08:48:43.893Z,37.78
2022-12-26T08:51:20.024Z,38.13
2022-12-26T08:53:49.655Z,38.55
2022-12-26T08:56:19.687Z,37.30
2022-12-26T08:58:47.729Z,38.50
2022-12-26T09:01:21.001Z,37.75
2022-12-26T09:03:48.333Z,34.57
2022-12-26T09:06:15.875Z,32.81
2022-12-26T09:08:42.981Z,33.42
2022-12-26T09:11:15.715Z,34.05
2022-12-26T09:13:44.318Z,32.26
2022-12-26T09:16:15.563Z,31.60
2022-12-26T09:18:43.577Z,31.65
2022-12-26T09:21:11.945Z,32.07
2022-12-26T09:23:40.330Z,30.14
2022-12-26T09:26:13.511Z,29.40
2022-12-26T09:28:41.021Z,31.08
2022-12-26T09:31:11.981Z,29.77
2022-12-26T09:33:39.574Z,27.74
2022-12-26T09:36:14.184Z,27.89
2022-12-26T09:38:42.409Z,27.25
2022-12-26T09:41:24.291Z,27.34
2022-12-26T09:44:18.821Z,25.52
2022-12-26T09:47:08.216Z,26.02
2022-12-26T09:49:40.726Z,23.71
2022-12-26T09:52:21.008Z,23.60
2022-12-26T09:54:58.937Z,19.79
2022-12-26T09:57:41.762Z,21.14
2022-12-26T10:00:18.813Z,22.17
2022-12-26T10:02:53.228Z,21.78
2022-12-26T10:05:29.096Z,28.96
2022-12-26T10:08:03.640Z,29.01
2022-12-26T10:10:42.844Z,28.89
2022-12-26T10:13:44.082Z,27.57
2022-12-26T10:16:38.073Z,27.66
2022-12-26T10:19:32.677Z,30.41
2022-12-26T10:22:32.478Z,28.05
2022-12-26T10:25:01.719Z,27.96
2022-12-26T10:27:34.996Z,26.69
2022-12-26T10:30:06.426Z,28.17
2022-12-26T10:32:46.830Z,30.84
2022-12-26T10:35:37.696Z,27.48
2022-12-26T10:38:13.374Z,27.26
2022-12-26T10:40:44.637Z,26.60
2022-12-26T10:43:20.280Z,27.13
2022-12-26T10:46:18.270Z,27.59
2022-12-26T10:48:46.107Z,26.47
2022-12-26T10:51:14.128Z,26.70
2022-12-26T10:53:47.237Z,25.20
2022-12-26T10:56:18.234Z,26.22
2022-12-26T10:58:49.557Z,25.85
2022-12-26T11:01:30.121Z,26.12
2022-12-26T11:03:59.822Z,26.51
2022-12-26T11:06:43.044Z,26.91
2022-12-26T11:09:28.698Z,25.68
2022-12-26T11:11:58.591Z,26.40
2022-12-26T11:14:33.288Z,24.22
2022-12-26T11:17:14.127Z,23.29
2022-12-26T11:19:42.905Z,23.36
2022-12-26T11:22:23.414Z,27.54
2022-12-26T11:25:12.316Z,28.80
2022-12-26T11:27:54.058Z,28.20
2022-12-26T11:30:32.711Z,28.98
2022-12-26T11:33:30.743Z,27.00
2022-12-26T11:36:17.573Z,27.08
2022-12-26T11:38:56.047Z,27.73
2022-12-26T11:41:32.414Z,28.50
2022-12-26T11:44:05.576Z,29.59
2022-12-26T11:46:41.526Z,32.00
2022-12-26T11:49:37.868Z,29.58
2022-12-26T11:52:35.266Z,27.16
2022-12-26T11:55:02.427Z,26.52
2022-12-26T11:57:31.734Z,26.24
2022-12-26T12:00:22.162Z,26.70
2022-12-26T12:02:49.418Z,30.12
2022-12-26T12:05:28.652Z,29.65
2022-12-26T12:08:14.210Z,29.88
2022-12-26T12:11:09.610Z,28.29
2022-12-26T12:13:51.578Z,28.28
2022-12-26T12:16:42.816Z,27.74
2022-12-26T12:19:43.043Z,29.62
2022-12-26T12:22:18.825Z,27.88
2022-12-26T12:24:48.499Z,28.88
2022-12-26T12:27:36.968Z,30.77
2022-12-26T12:30:29.537Z,31.18
2022-12-26T12:33:23.582Z,32.46
2022-12-26T12:35:53.474Z,36.46
2022-12-26T12:38:56.531Z,42.25
2022-12-26T12:42:14.644Z,49.07
2022-12-26T12:45:00.131Z,52.23
2022-12-26T12:47:42.132Z,55.21
2022-12-26T12:51:10.187Z,58.80
2022-12-26T12:53:42.696Z,62.01
2022-12-26T12:56:41.948Z,63.53
2022-12-26T12:59:27.802Z,66.10
2022-12-26T13:02:07.193Z,66.88
2022-12-26T13:04:42.074Z,66.88
2022-12-26T13:07:25.252Z,67.78
2022-12-26T13:10:02.009Z,68.14
2022-12-26T13:12:36.334Z,67.82
2022-12-26T13:15:06.886Z,69.48
2022-12-26T13:17:41.083Z,71.66
2022-12-26T13:20:40.521Z,72.68
2022-12-26T13:23:59.793Z,72.91
2022-12-26T13:27:03.419Z,74.82
2022-12-26T13:29:39.694Z,76.10
2022-12-26T13:32:29.731Z,77.07
2022-12-26T13:34:59.557Z,77.54
2022-12-26T13:37:35.427Z,78.38
2022-12-26T13:40:07.261Z,78.77
2022-12-26T13:42:56.487Z,79.69
2022-12-26T13:45:35.493Z,80.47
2022-12-26T13:48:23.180Z,81.26
2022-12-26T13:51:03.261Z,82.02
2022-12-26T13:53:34.447Z,82.68
2022-12-26T13:56:04.532Z,83.74
2022-12-26T13:58:43.500Z,83.59
2022-12-26T14:01:53.706Z,84.16
2022-12-26T14:04:31.019Z,84.43
2022-12-26T14:07:59.903Z,85.17
2022-12-26T14:10:48.645Z,85.47
2022-12-26T14:13:33.795Z,85.71
2022-12-26T14:16:28.485Z,85.80
2022-12-26T14:19:21.491Z,86.35
2022-12-26T14:22:06.062Z,86.91
2022-12-26T14:25:03.434Z,87.80
2022-12-26T14:27:42.969Z,89.95
2022-12-26T14:30:34.735Z,90.06
2022-12-26T14:33:20.476Z,90.43
2022-12-26T14:36:00.888Z,90.24
2022-12-26T14:38:40.917Z,91.16
2022-12-26T14:41:32.198Z,91.83
2022-12-26T14:44:21.639Z,91.68
2022-12-26T14:46:48.430Z,92.37
2022-12-26T14:49:35.225Z,92.46
2022-12-26T14:52:32.667Z,93.18
2022-12-26T14:54:59.707Z,94.07
2022-12-26T14:57:47.029Z,94.38
2022-12-26T15:00:34.754Z,94.95
2022-12-26T15:03:04.724Z,94.48
2022-12-26T15:05:37.743Z,94.85
2022-12-26T15:08:22.931Z,95.07
2022-12-26T15:11:20.250Z,95.52
2022-12-26T15:29:23.588Z,100.00
2022-12-26T15:32:13.498Z,100.00
2022-12-26T15:35:15.474Z,100.00
2022-12-26T15:37:52.367Z,100.00
2022-12-26T15:40:32.953Z,100.00
2022-12-26T15:42:59.833Z,100.00
2022-12-26T15:45:32.435Z,99.92
2022-12-26T15:48:04.992Z,100.00
2022-12-26T15:50:52.643Z,100.00
2022-12-26T15:53:29.704Z,100.00
2022-12-26T15:56:02.395Z,100.00
2022-12-26T15:58:35.330Z,100.00
2022-12-26T16:01:02.428Z,99.65
2022-12-26T16:03:29.671Z,99.55
2022-12-26T16:06:34.996Z,99.08
2022-12-26T16:09:24.772Z,98.53
2022-12-26T16:11:56.025Z,99.00
2022-12-26T16:14:30.997Z,99.27
2022-12-26T16:17:16.180Z,99.41
2022-12-26T16:19:48.500Z,99.27
2022-12-26T16:22:49.581Z,99.65
2022-12-26T16:25:23.978Z,98.83
2022-12-26T16:27:55.600Z,99.04
2022-12-26T16:30:28.705Z,98.81
2022-12-26T16:32:56.323Z,98.87
2022-12-26T16:35:27.372Z,98.53
2022-12-26T16:37:57.158Z,98.18
2022-12-26T16:40:41.537Z,97.49
2022-12-26T16:43:17.716Z,96.85
2022-12-26T16:45:58.903Z,97.28
2022-12-26T16:48:28.309Z,96.70
2022-12-26T16:51:01.887Z,96.58
2022-12-26T16:53:34.491Z,95.68
2022-12-26T16:56:29.099Z,95.49
2022-12-26T16:59:17.998Z,95.15
2022-12-26T17:01:54.989Z,95.60
2022-12-26T17:04:24.517Z,96.41
2022-12-26T17:07:04.779Z,96.60
2022-12-26T17:09:39.403Z,96.33
2022-12-26T17:12:16.397Z,95.99
2022-12-26T17:14:47.476Z,95.95
2022-12-26T17:17:23.196Z,96.68
2022-12-26T17:19:54.405Z,97.77
2022-12-26T17:22:27.840Z,98.25
2022-12-26T17:25:17.517Z,98.68
2022-12-26T17:27:45.579Z,98.73
2022-12-26T17:30:27.553Z,98.15
2022-12-26T17:32:56.085Z,98.64
2022-12-26T17:35:26.025Z,98.80
2022-12-26T17:38:01.055Z,97.62
2022-12-26T17:40:33.785Z,98.09
2022-12-26T17:43:11.425Z,98.19
2022-12-26T17:45:46.818Z,98.79
2022-12-26T17:48:14.329Z,98.62
2022-12-26T17:50:44.163Z,98.64
2022-12-26T17:53:36.624Z,98.74
2022-12-26T17:56:06.650Z,97.84
2022-12-26T17:58:34.752Z,98.22
2022-12-26T18:01:02.295Z,98.06
2022-12-26T18:03:29.417Z,97.69
2022-12-26T18:05:56.621Z,98.22
2022-12-26T18:08:38.429Z,99.21
2022-12-26T18:11:10.939Z,98.38
2022-12-26T18:13:38.161Z,98.71
2022-12-26T18:16:05.787Z,98.23
2022-12-26T18:18:40.848Z,98.66
2022-12-26T18:21:10.490Z,98.29
2022-12-26T18:23:37.745Z,97.48
2022-12-26T18:26:09.143Z,98.02
2022-12-26T18:28:36.396Z,98.26
2022-12-26T18:31:03.492Z,98.29
2022-12-26T18:33:30.291Z,98.03
2022-12-26T18:35:57.211Z,98.74
2022-12-26T18:38:24.057Z,99.09
2022-12-26T18:40:58.111Z,98.67
2022-12-26T18:43:25.005Z,99.67
2022-12-26T18:45:53.244Z,99.73
2022-12-26T18:48:20.356Z,99.54
2022-12-26T18:50:47.490Z,99.15
2022-12-26T18:53:14.345Z,99.68
2022-12-26T18:55:41.573Z,100.00
2022-12-26T18:58:08.439Z,100.00
2022-12-26T19:00:36.511Z,100.00
2022-12-26T19:03:04.132Z,100.00
2022-12-26T19:05:33.993Z,99.71
2022-12-26T19:08:01.965Z,100.00
2022-12-26T19:10:32.357Z,100.00
2022-12-26T19:13:05.668Z,100.00
2022-12-26T19:15:36.570Z,100.00
2022-12-26T19:18:05.169Z,100.00
2022-12-26T19:20:32.473Z,100.00
2022-12-26T19:22:59.368Z,100.00
2022-12-26T19:25:26.786Z,100.00
2022-12-26T19:27:54.859Z,100.00
2022-12-26T19:30:22.752Z,100.00
2022-12-26T19:32:50.623Z,100.00
2022-12-26T19:35:18.374Z,100.00
2022-12-26T19:37:45.692Z,100.00
2022-12-26T19:40:13.659Z,100.00
2022-12-26T19:42:40.772Z,100.00
2022-12-26T19:45:10.060Z,100.00
2022-12-26T19:47:37.674Z,100.00
2022-12-26T19:50:06.728Z,100.00
2022-12-26T19:52:36.783Z,100.00
2022-12-26T19:55:06.368Z,100.00
2022-12-26T19:57:33.554Z,100.00
2022-12-26T20:00:00.650Z,100.00
2022-12-26T20:02:27.741Z,100.00
2022-12-26T20:04:54.937Z,100.00
2022-12-26T20:07:21.909Z,100.00
2022-12-26T20:09:48.973Z,100.00
2022-12-26T20:12:16.186Z,100.00
2022-12-26T20:15:03.461Z,100.00
2022-12-26T20:17:30.613Z,100.00
2022-12-26T20:19:57.805Z,100.00
2022-12-26T20:22:24.811Z,100.00
2022-12-26T20:24:51.766Z,100.00
2022-12-26T20:27:18.962Z,100.00
2022-12-26T20:29:46.018Z,100.00
2022-12-26T20:32:12.894Z,100.00
2022-12-26T20:34:40.013Z,100.00
2022-12-26T20:37:07.047Z,100.00
2022-12-26T20:39:34.085Z,100.00
2022-12-26T20:42:01.031Z,100.00
2022-12-26T20:44:28.057Z,100.00
2022-12-26T20:46:55.243Z,100.00
2022-12-26T20:49:22.252Z,100.00
2022-12-26T20:51:49.242Z,100.00
2022-12-26T20:54:16.796Z,100.00
2022-12-26T20:56:45.064Z,100.00
2022-12-26T20:59:12.073Z,100.00
2022-12-26T21:01:40.566Z,100.00
2022-12-26T21:04:09.023Z,100.00
2022-12-26T21:06:37.865Z,99.80
2022-12-26T21:09:06.828Z,99.55
2022-12-26T21:11:39.036Z,98.61
2022-12-26T21:14:10.337Z,98.81
2022-12-26T21:16:39.895Z,98.20
2022-12-26T21:19:12.541Z,98.02
2022-12-26T21:21:44.507Z,98.35
2022-12-26T21:24:15.306Z,98.29
2022-12-26T21:26:42.925Z,98.49
2022-12-26T21:29:15.361Z,98.37
2022-12-26T21:31:42.629Z,98.29
2022-12-26T21:34:12.629Z,98.89
2022-12-26T21:36:40.113Z,98.18
2022-12-26T21:39:09.322Z,98.37
2022-12-26T21:41:39.568Z,98.58
2022-12-26T21:44:06.594Z,98.63
2022-12-26T21:46:34.495Z,99.70
2022-12-26T21:49:01.519Z,98.86
2022-12-26T21:51:29.789Z,99.67
2022-12-26T21:54:16.654Z,99.70
2022-12-26T21:56:43.658Z,100.00
2022-12-26T21:59:49.629Z,100.00
2022-12-26T22:02:35.314Z,100.00
2022-12-26T22:05:02.535Z,100.00
2022-12-26T22:07:29.543Z,100.00
2022-12-26T22:09:56.432Z,99.79
2022-12-26T22:12:44.986Z,99.97
2022-12-26T22:15:30.297Z,99.76
2022-12-26T22:17:57.763Z,99.82
2022-12-26T22:20:25.371Z,99.10
2022-12-26T22:22:52.518Z,99.56
2022-12-26T22:25:19.934Z,99.66
2022-12-26T22:27:47.475Z,99.06
2022-12-26T22:30:14.542Z,98.68
2022-12-26T22:32:41.541Z,98.59
2022-12-26T22:35:14.827Z,98.88
2022-12-26T22:37:45.275Z,97.89
2022-12-26T22:40:12.625Z,98.00
2022-12-26T22:42:39.676Z,98.14
2022-12-26T22:45:07.217Z,97.88
2022-12-26T22:47:34.158Z,97.69
2022-12-26T22:50:01.237Z,97.48
2022-12-26T22:52:28.973Z,97.33
2022-12-26T22:54:55.995Z,97.65
2022-12-26T22:57:23.829Z,97.96
2022-12-26T23:00:08.107Z,97.82
2022-12-26T23:02:36.123Z,98.43
2022-12-26T23:05:04.190Z,98.13
2022-12-26T23:07:31.815Z,98.84
2022-12-26T23:09:59.300Z,99.18
2022-12-26T23:12:45.104Z,98.92
2022-12-26T23:15:18.500Z,100.00
2022-12-26T23:18:11.465Z,99.76
2022-12-26T23:20:58.057Z,99.89
2022-12-26T23:23:25.724Z,100.00
2022-12-26T23:25:52.779Z,100.00
2022-12-26T23:28:38.319Z,100.00
2022-12-26T23:31:05.441Z,100.00
2022-12-26T23:33:32.797Z,100.00
2022-12-26T23:36:00.068Z,100.00
2022-12-26T23:38:27.269Z,99.71
2022-12-26T23:40:54.325Z,99.71
2022-12-26T23:43:21.359Z,99.72
2022-12-26T23:45:48.278Z,100.00
2022-12-26T23:48:15.447Z,99.67
2022-12-26T23:50:42.435Z,99.14
2022-12-26T23:53:09.537Z,99.08
2022-12-26T23:55:41.811Z,98.81
2022-12-26T23:58:11.714Z,98.27
